Time;durP1;ratioP1;P1;durP2;ratioP2;P2;SDS_P1;SDS_P2;PMS_P1;PMS_P2;Temp;Humidity;BMP_temperature;BMP_pressure;BME280_temperature;BME280_humidity;BME280_pressure;Samples;Min_cycle;Max_cycle;Signal;HPM_P1;HPM_P2
2023/01/16 00:00:53;;;;;;;2.30;0.98;;;4.30;99.90;;;;;;4992889;28;20099;-37
2023/01/16 00:03:19;;;;;;;4.68;1.15;;;4.20;99.90;;;;;;4988339;28;20218;-38
2023/01/16 00:05:45;;;;;;;3.35;1.13;;;4.30;99.90;;;;;;4989860;28;20962;-39
2023/01/16 00:08:11;;;;;;;4.63;1.20;;;4.20;99.90;;;;;;4981778;28;20121;-37
2023/01/16 00:10:37;;;;;;;4.38;1.00;;;4.30;99.90;;;;;;4995665;28;20142;-36
2023/01/16 00:13:03;;;;;;;1.80;0.80;;;4.30;99.90;;;;;;4990285;28;20074;-39
2023/01/16 00:15:29;;;;;;;4.20;1.02;;;4.30;99.90;;;;;;4998093;28;20026;-37
2023/01/16 00:17:54;;;;;;;6.57;1.70;;;4.30;99.90;;;;;;4991995;28;20536;-36
2023/01/16 00:20:20;;;;;;;4.55;1.15;;;4.30;99.90;;;;;;4988514;28;20125;-36
2023/01/16 00:22:46;;;;;;;4.60;1.52;;;4.30;99.90;;;;;;4990135;28;20050;-38
2023/01/16 00:25:11;;;;;;;4.40;1.45;;;4.30;99.90;;;;;;4991187;28;20470;-36
2023/01/16 00:27:37;;;;;;;5.18;1.25;;;4.30;99.90;;;;;;4989162;28;20505;-38
2023/01/16 00:30:05;;;;;;;5.65;1.15;;;4.40;99.90;;;;;;4987655;28;20050;-37
2023/01/16 00:32:31;;;;;;;5.75;1.13;;;4.40;99.90;;;;;;4990647;28;20088;-37
2023/01/16 00:34:56;;;;;;;4.80;1.20;;;4.40;99.90;;;;;;4993799;28;20470;-36
2023/01/16 00:37:22;;;;;;;3.17;1.10;;;4.40;99.90;;;;;;4992326;28;20586;-38
2023/01/16 00:39:48;;;;;;;5.35;1.00;;;4.40;99.90;;;;;;4987846;28;20034;-38
2023/01/16 00:42:14;;;;;;;2.85;0.90;;;4.40;99.90;;;;;;4988794;28;20034;-37
2023/01/16 00:44:40;;;;;;;4.05;1.00;;;4.40;99.90;;;;;;4974926;28;20439;-36
2023/01/16 00:47:06;;;;;;;8.35;1.98;;;4.40;99.90;;;;;;4988836;28;20046;-37
2023/01/16 00:49:32;;;;;;;3.05;0.93;;;4.40;99.90;;;;;;4985719;28;20042;-37
2023/01/16 00:51:58;;;;;;;4.90;0.90;;;4.40;99.90;;;;;;4968395;28;20108;-38
2023/01/16 00:54:24;;;;;;;5.03;0.90;;;4.40;99.90;;;;;;4987764;28;20419;-37
2023/01/16 00:56:49;;;;;;;4.93;1.05;;;4.40;99.90;;;;;;4988141;28;20443;-36
2023/01/16 00:59:15;;;;;;;4.65;0.95;;;4.40;99.90;;;;;;4987238;28;20026;-36
2023/01/16 01:01:41;;;;;;;5.13;1.10;;;4.40;99.90;;;;;;4987245;28;20121;-36
2023/01/16 01:04:06;;;;;;;8.00;1.30;;;4.50;99.90;;;;;;4993771;28;20124;-37
2023/01/16 01:06:32;;;;;;;3.92;1.45;;;4.50;99.90;;;;;;4969149;28;20403;-39
2023/01/16 01:08:58;;;;;;;6.82;0.98;;;4.50;99.90;;;;;;4987525;28;20500;-38
2023/01/16 01:11:24;;;;;;;9.35;1.15;;;4.50;99.90;;;;;;4989049;28;20050;-37
2023/01/16 01:13:50;;;;;;;5.75;0.95;;;4.50;99.90;;;;;;4987146;28;20100;-36
2023/01/16 01:16:16;;;;;;;3.33;0.73;;;4.50;99.90;;;;;;4987363;28;20380;-36
2023/01/16 01:18:42;;;;;;;4.20;0.95;;;4.50;99.90;;;;;;4985242;28;20030;-36
2023/01/16 01:21:08;;;;;;;6.78;1.02;;;4.50;99.90;;;;;;4984635;28;20213;-38
2023/01/16 01:23:34;;;;;;;5.55;1.20;;;4.50;99.90;;;;;;4983957;28;20565;-37
2023/01/16 01:26:07;;;;;;;3.80;0.93;;;4.50;99.90;;;;;;4985940;28;20038;-36
2023/01/16 01:28:33;;;;;;;4.78;1.08;;;4.50;99.90;;;;;;4987333;28;20045;-37
2023/01/16 01:31:05;;;;;;;6.70;1.15;;;4.50;99.90;;;;;;4988593;28;20412;-38
2023/01/16 01:33:31;;;;;;;4.53;0.80;;;4.40;99.90;;;;;;4986279;28;20146;-39
2023/01/16 01:35:56;;;;;;;5.07;1.10;;;4.40;99.90;;;;;;4999557;28;20160;-36
2023/01/16 01:38:22;;;;;;;7.82;1.10;;;4.40;99.90;;;;;;5007619;28;20073;-37
2023/01/16 01:40:48;;;;;;;2.70;0.70;;;4.50;99.90;;;;;;5008457;28;20041;-37
2023/01/16 01:43:15;;;;;;;6.40;1.00;;;4.40;99.90;;;;;;5006778;28;20395;-41
2023/01/16 01:45:43;;;;;;;4.72;0.95;;;4.50;99.90;;;;;;4972671;28;20041;-36
2023/01/16 01:48:11;;;;;;;3.88;0.70;;;4.50;99.90;;;;;;5006348;28;20053;-37
2023/01/16 01:50:43;;;;;;;4.57;0.95;;;4.50;99.90;;;;;;5004572;28;20046;-37
2023/01/16 01:53:16;;;;;;;5.82;0.93;;;4.50;99.90;;;;;;5006389;28;20049;-37
2023/01/16 01:55:46;;;;;;;3.15;1.08;;;4.50;99.90;;;;;;5006731;28;20045;-37
2023/01/16 01:58:20;;;;;;;6.25;1.10;;;4.50;99.90;;;;;;5007552;28;20038;-36
2023/01/16 02:00:48;;;;;;;5.03;1.10;;;4.50;99.90;;;;;;5007644;28;20064;-36
2023/01/16 02:03:25;;;;;;;5.78;1.08;;;4.40;99.90;;;;;;5005240;28;20095;-38
2023/01/16 02:05:53;;;;;;;3.42;0.85;;;4.40;99.90;;;;;;4989272;28;20099;-36
2023/01/16 02:08:24;;;;;;;3.50;0.80;;;4.40;99.90;;;;;;4988436;28;20046;-36
2023/01/16 02:10:56;;;;;;;3.88;0.90;;;4.30;99.90;;;;;;5011555;28;20506;-38
2023/01/16 02:13:22;;;;;;;7.13;1.15;;;4.30;99.90;;;;;;5005076;28;20695;-37
2023/01/16 02:22:00;;;;;;;5.57;1.17;;;4.20;99.90;;;;;;4979109;28;20046;-36
2023/01/16 02:24:38;;;;;;;5.25;1.20;;;4.10;99.90;;;;;;5006356;28;20037;-36
2023/01/16 02:27:34;;;;;;;3.67;1.10;;;4.10;99.90;;;;;;5006389;28;21783;-37
2023/01/16 02:30:08;;;;;;;6.45;1.02;;;4.10;99.90;;;;;;5003547;28;20049;-37
2023/01/16 02:32:51;;;;;;;4.13;1.08;;;4.10;99.90;;;;;;5004028;28;20096;-39
2023/01/16 02:35:26;;;;;;;3.35;1.38;;;4.10;99.90;;;;;;5006516;28;20100;-37
2023/01/16 02:37:59;;;;;;;4.75;1.33;;;4.10;99.90;;;;;;5004498;28;20042;-36
2023/01/16 02:40:50;;;;;;;4.13;0.93;;;4.10;99.90;;;;;;5009155;28;20456;-37
2023/01/16 02:43:32;;;;;;;4.00;1.42;;;4.20;99.90;;;;;;5007054;28;20053;-37
2023/01/16 02:46:16;;;;;;;5.23;1.47;;;4.20;99.90;;;;;;5007688;28;20041;-38
2023/01/16 02:49:24;;;;;;;5.63;2.20;;;4.20;99.90;;;;;;5004171;28;20501;-39
2023/01/16 02:51:59;;;;;;;4.07;1.70;;;4.30;99.90;;;;;;5003420;28;20041;-37
2023/01/16 02:54:32;;;;;;;5.55;1.92;;;4.30;99.90;;;;;;5003298;28;20045;-36
2023/01/16 02:57:16;;;;;;;3.80;1.75;;;4.30;99.90;;;;;;5007634;28;20116;-37
2023/01/16 02:59:42;;;;;;;6.15;1.98;;;4.40;99.90;;;;;;5003620;28;20148;-36
2023/01/16 03:02:09;;;;;;;5.05;2.00;;;4.40;99.90;;;;;;5008379;28;20052;-39
2023/01/16 03:04:43;;;;;;;5.28;2.10;;;4.40;99.90;;;;;;5008163;28;20053;-37
2023/01/16 03:07:46;;;;;;;4.95;1.73;;;4.40;99.90;;;;;;5008949;28;20049;-37
2023/01/16 03:10:42;;;;;;;7.00;2.08;;;4.40;99.90;;;;;;5006540;28;20510;-36
2023/01/16 03:13:46;;;;;;;3.60;1.90;;;4.40;99.90;;;;;;5007182;28;20030;-37
2023/01/16 03:16:44;;;;;;;6.68;2.60;;;4.40;99.90;;;;;;5011513;28;20041;-37
2023/01/16 03:19:27;;;;;;;5.20;2.03;;;4.40;99.90;;;;;;5007946;28;20073;-37
2023/01/16 03:21:57;;;;;;;9.13;3.33;;;4.50;99.90;;;;;;5011387;28;20037;-36
2023/01/16 03:24:41;;;;;;;9.00;2.30;;;4.50;99.90;;;;;;5011412;28;20092;-36
2023/01/16 03:27:16;;;;;;;8.77;3.00;;;4.50;99.90;;;;;;5014220;28;20041;-37
2023/01/16 03:29:51;;;;;;;5.75;2.75;;;4.50;99.90;;;;;;5001076;28;20132;-36
2023/01/16 03:32:36;;;;;;;8.52;2.72;;;4.50;99.90;;;;;;5012434;28;20049;-38
2023/01/16 03:35:33;;;;;;;6.60;2.72;;;4.50;99.90;;;;;;5011473;28;20108;-36
2023/01/16 03:38:06;;;;;;;8.18;3.30;;;4.50;99.90;;;;;;4991112;28;20045;-36
2023/01/16 03:40:36;;;;;;;9.70;3.72;;;4.50;99.90;;;;;;5008996;28;20895;-37
2023/01/16 03:43:20;;;;;;;7.00;3.08;;;4.50;99.90;;;;;;5009500;28;20160;-37
2023/01/16 03:45:55;;;;;;;8.52;3.83;;;4.50;99.90;;;;;;5008767;28;20529;-36
2023/01/16 03:48:50;;;;;;;8.73;3.60;;;4.50;99.90;;;;;;5011601;28;20061;-38
2023/01/16 03:51:23;;;;;;;8.95;4.55;;;4.60;99.90;;;;;;5007516;28;20042;-37
2023/01/16 03:54:16;;;;;;;10.63;3.80;;;4.60;99.90;;;;;;5009303;28;20088;-36
2023/01/16 03:56:58;;;;;;;7.38;3.80;;;4.60;99.90;;;;;;5011206;28;20597;-36
2023/01/16 03:59:25;;;;;;;8.10;4.10;;;4.60;99.90;;;;;;5008766;28;20461;-36
2023/01/16 04:02:21;;;;;;;8.70;4.47;;;4.60;99.90;;;;;;5010644;28;20100;-36
2023/01/16 04:05:16;;;;;;;8.15;4.13;;;4.60;99.90;;;;;;5006785;28;20042;-36
2023/01/16 04:07:58;;;;;;;11.07;4.18;;;4.60;99.90;;;;;;5004335;28;20160;-36
2023/01/16 04:10:28;;;;;;;11.02;4.30;;;4.60;99.90;;;;;;5009688;28;20034;-37
2023/01/16 04:12:58;;;;;;;10.57;5.00;;;4.60;99.90;;;;;;4996255;28;20050;-37
2023/01/16 04:15:27;;;;;;;11.40;4.40;;;4.60;99.90;;;;;;5007358;28;20038;-37
2023/01/16 04:17:53;;;;;;;9.10;5.18;;;4.60;99.90;;;;;;5007224;28;20029;-37
2023/01/16 04:20:19;;;;;;;9.93;4.80;;;4.60;99.90;;;;;;5008980;28;20502;-37
2023/01/16 04:22:49;;;;;;;14.98;4.97;;;4.60;99.90;;;;;;5009111;28;20037;-37
2023/01/16 04:25:17;;;;;;;8.82;4.72;;;4.60;99.90;;;;;;5008893;28;20042;-37
2023/01/16 04:27:43;;;;;;;8.57;4.55;;;4.60;99.90;;;;;;5013129;28;20042;-38
2023/01/16 04:30:09;;;;;;;13.40;5.10;;;4.60;99.90;;;;;;5008776;28;20522;-36
2023/01/16 04:32:35;;;;;;;11.70;5.65;;;4.50;99.90;;;;;;5006774;28;20560;-37
2023/01/16 04:35:01;;;;;;;12.30;5.07;;;4.50;99.90;;;;;;5008840;28;20092;-37
2023/01/16 04:37:27;;;;;;;12.20;4.85;;;4.40;99.90;;;;;;5009123;28;20038;-36
2023/01/16 04:39:53;;;;;;;12.82;5.20;;;4.30;99.90;;;;;;5004293;28;20165;-37
2023/01/16 04:42:18;;;;;;;10.52;5.10;;;4.30;99.90;;;;;;5010641;28;20038;-36
2023/01/16 04:44:44;;;;;;;13.90;5.35;;;4.20;99.90;;;;;;5010016;28;20045;-37
2023/01/16 04:47:10;;;;;;;12.35;4.72;;;4.10;99.90;;;;;;5009533;28;20704;-36
2023/01/16 04:49:36;;;;;;;9.23;4.47;;;4.10;99.90;;;;;;5004939;28;20095;-38
2023/01/16 04:52:02;;;;;;;8.60;3.92;;;4.00;99.90;;;;;;5009103;28;20403;-37
2023/01/16 04:54:28;;;;;;;11.50;5.03;;;4.00;99.90;;;;;;5005818;28;20037;-38
2023/01/16 04:56:54;;;;;;;11.02;4.03;;;3.90;99.90;;;;;;5008987;28;20131;-36
2023/01/16 04:59:19;;;;;;;11.55;4.07;;;3.90;99.90;;;;;;5006727;28;20026;-37
2023/01/16 05:01:45;;;;;;;8.45;3.33;;;3.80;99.90;;;;;;5006236;28;20042;-36
2023/01/16 05:04:14;;;;;;;9.80;3.80;;;3.80;99.90;;;;;;5007696;28;20072;-36
2023/01/16 05:06:40;;;;;;;7.45;4.07;;;3.70;99.90;;;;;;5012221;28;20108;-36
2023/01/16 05:09:07;;;;;;;11.73;3.80;;;3.70;99.90;;;;;;5008455;28;20510;-38
2023/01/16 05:11:33;;;;;;;17.45;4.57;;;3.70;99.90;;;;;;5006535;28;20057;-37
2023/01/16 05:13:59;;;;;;;9.48;3.40;;;3.70;99.90;;;;;;5005729;28;20381;-37
2023/01/16 05:16:26;;;;;;;11.27;3.67;;;3.70;99.90;;;;;;5006210;28;20046;-40
2023/01/16 05:18:51;;;;;;;8.05;3.10;;;3.70;99.90;;;;;;4994552;28;20391;-36
2023/01/16 05:21:17;;;;;;;12.30;2.78;;;3.70;99.90;;;;;;5008057;28;20034;-38
2023/01/16 05:23:43;;;;;;;9.90;2.58;;;3.70;99.90;;;;;;5009056;28;20124;-38
2023/01/16 05:26:08;;;;;;;7.22;2.70;;;3.70;99.90;;;;;;5005921;28;20553;-37
2023/01/16 05:28:35;;;;;;;5.15;2.33;;;3.70;99.90;;;;;;5007155;28;20049;-36
2023/01/16 05:31:02;;;;;;;8.20;2.75;;;3.70;99.90;;;;;;5009012;28;20038;-36
2023/01/16 05:33:28;;;;;;;7.68;2.20;;;3.80;99.90;;;;;;5008620;28;20266;-38
2023/01/16 05:35:54;;;;;;;6.43;2.63;;;3.70;99.90;;;;;;5006018;28;20065;-36
2023/01/16 05:38:21;;;;;;;8.75;2.20;;;3.70;99.90;;;;;;5007614;28;20506;-37
2023/01/16 05:40:47;;;;;;;4.55;2.05;;;3.70;99.90;;;;;;5008112;28;20140;-36
2023/01/16 05:43:14;;;;;;;8.48;2.13;;;3.70;99.90;;;;;;5009224;28;20038;-37
2023/01/16 05:45:40;;;;;;;9.93;1.75;;;3.70;99.90;;;;;;5005569;28;20061;-37
2023/01/16 05:48:06;;;;;;;4.68;2.10;;;3.70;99.90;;;;;;5008103;28;20511;-37
2023/01/16 05:50:32;;;;;;;4.60;1.80;;;3.70;99.90;;;;;;5011810;28;20139;-38
2023/01/16 05:52:58;;;;;;;5.93;2.17;;;3.70;99.90;;;;;;5007177;28;20502;-37
2023/01/16 05:55:24;;;;;;;9.65;2.17;;;3.70;99.90;;;;;;5007437;28;20157;-37
2023/01/16 05:57:49;;;;;;;6.10;2.30;;;3.60;99.90;;;;;;4988314;28;20486;-37
2023/01/16 06:00:16;;;;;;;6.30;2.08;;;3.60;99.90;;;;;;5005649;28;20053;-36
2023/01/16 06:02:41;;;;;;;4.97;2.08;;;3.60;99.90;;;;;;5006794;28;20045;-37
2023/01/16 06:05:08;;;;;;;6.70;1.70;;;3.60;99.90;;;;;;5007678;28;20033;-37
2023/01/16 06:07:33;;;;;;;7.38;2.90;;;3.60;99.90;;;;;;5006261;28;20042;-38
2023/01/16 06:09:59;;;;;;;7.35;1.98;;;3.60;99.90;;;;;;5007227;28;20129;-37
2023/01/16 06:12:25;;;;;;;9.50;1.80;;;3.60;99.90;;;;;;5003099;28;20168;-39
2023/01/16 06:14:50;;;;;;;5.65;1.95;;;3.60;99.90;;;;;;5002586;28;20053;-40
2023/01/16 06:17:18;;;;;;;7.00;2.30;;;3.60;99.90;;;;;;5007412;28;20042;-37
2023/01/16 06:19:44;;;;;;;6.93;1.95;;;3.60;99.90;;;;;;5008408;28;20550;-36
2023/01/16 06:22:11;;;;;;;6.10;1.75;;;3.60;99.90;;;;;;5007284;28;20052;-36
2023/01/16 06:24:37;;;;;;;4.85;1.55;;;3.60;99.90;;;;;;5005199;28;20042;-37
2023/01/16 06:27:03;;;;;;;4.82;1.63;;;3.50;99.90;;;;;;5006810;28;20064;-36
2023/01/16 06:29:29;;;;;;;6.50;1.55;;;3.50;99.90;;;;;;5004340;28;20488;-36
2023/01/16 06:31:54;;;;;;;6.78;1.60;;;3.50;99.90;;;;;;5007795;28;20375;-36
2023/01/16 06:34:23;;;;;;;3.35;1.20;;;3.50;99.90;;;;;;5005047;28;20595;-37
2023/01/16 06:36:49;;;;;;;6.32;1.45;;;3.50;99.90;;;;;;5005840;28;20072;-39
2023/01/16 06:39:15;;;;;;;3.45;1.00;;;3.50;99.90;;;;;;5007163;28;20073;-37
2023/01/16 06:41:42;;;;;;;3.80;1.48;;;3.50;99.90;;;;;;5002924;28;20046;-38
2023/01/16 06:44:08;;;;;;;6.55;1.30;;;3.50;99.90;;;;;;5000315;28;20052;-38
2023/01/16 06:46:34;;;;;;;3.30;1.13;;;3.50;99.90;;;;;;4990649;28;20569;-36
2023/01/16 06:48:59;;;;;;;7.50;1.60;;;3.50;99.90;;;;;;5009373;28;20042;-37
2023/01/16 06:51:25;;;;;;;6.05;1.48;;;3.50;99.90;;;;;;5010656;28;20041;-36
2023/01/16 06:53:51;;;;;;;5.95;1.40;;;3.50;99.90;;;;;;5007418;28;20042;-37
2023/01/16 06:56:17;;;;;;;4.40;1.38;;;3.50;99.90;;;;;;5010940;28;20558;-37
2023/01/16 06:58:43;;;;;;;5.70;0.95;;;3.50;99.90;;;;;;5009305;28;20042;-36
2023/01/16 07:01:09;;;;;;;4.70;1.35;;;3.50;99.90;;;;;;4990851;28;20104;-36
2023/01/16 07:03:36;;;;;;;6.47;1.10;;;3.60;99.90;;;;;;5009227;28;20430;-37
2023/01/16 07:06:02;;;;;;;5.07;1.40;;;3.50;99.90;;;;;;5005009;28;20741;-37
2023/01/16 07:08:28;;;;;;;5.00;1.50;;;3.60;99.90;;;;;;5008092;28;20045;-37
2023/01/16 07:10:57;;;;;;;4.03;1.42;;;3.60;99.90;;;;;;5008777;28;20356;-36
2023/01/16 07:13:27;;;;;;;7.55;1.30;;;3.60;99.90;;;;;;5005008;28;20040;-36
2023/01/16 07:24:15;;;;;;;6.57;1.08;;;3.60;99.90;;;;;;5005194;28;20128;-36
2023/01/16 07:26:43;;;;;;;4.35;0.60;;;3.70;99.90;;;;;;5007015;28;20549;-38
2023/01/16 07:29:09;;;;;;;5.05;0.93;;;3.70;99.90;;;;;;5009461;28;20045;-36
2023/01/16 07:31:36;;;;;;;4.03;1.23;;;3.70;99.90;;;;;;5002951;28;20092;-38
2023/01/16 07:34:02;;;;;;;5.80;1.20;;;3.70;99.90;;;;;;5004971;28;20482;-36
2023/01/16 07:36:27;;;;;;;3.45;1.08;;;3.70;99.90;;;;;;5005303;28;20084;-37
2023/01/16 07:38:53;;;;;;;5.50;1.42;;;3.80;99.90;;;;;;5007996;28;20104;-37
2023/01/16 07:41:19;;;;;;;5.50;1.55;;;3.80;99.90;;;;;;5004602;28;20050;-36
2023/01/16 07:43:44;;;;;;;4.68;1.48;;;3.80;99.90;;;;;;5009344;28;20418;-37
2023/01/16 07:46:10;;;;;;;4.30;1.30;;;3.90;99.90;;;;;;5007480;28;20050;-39
2023/01/16 07:48:36;;;;;;;4.78;1.45;;;3.90;99.90;;;;;;5011069;28;20143;-39
2023/01/16 07:51:01;;;;;;;5.45;1.70;;;3.90;99.90;;;;;;5006999;28;20041;-38
2023/01/16 07:53:29;;;;;;;6.15;1.48;;;4.00;99.90;;;;;;5007961;28;20117;-36
2023/01/16 07:55:57;;;;;;;6.13;1.95;;;4.00;99.90;;;;;;5008182;28;20125;-36
2023/01/16 07:58:23;;;;;;;6.85;1.50;;;4.00;99.90;;;;;;5011519;28;20046;-37
2023/01/16 08:00:51;;;;;;;4.65;1.50;;;4.00;99.90;;;;;;5008347;28;20400;-36
2023/01/16 08:03:17;;;;;;;4.25;1.60;;;4.10;99.90;;;;;;4989771;28;20052;-37
2023/01/16 08:05:43;;;;;;;5.28;1.95;;;4.10;99.90;;;;;;5010463;28;20038;-37
2023/01/16 08:08:10;;;;;;;6.15;1.48;;;4.10;99.90;;;;;;5009283;28;20045;-36
2023/01/16 08:10:36;;;;;;;4.28;1.50;;;4.10;99.90;;;;;;5011620;28;20042;-39
2023/01/16 08:13:02;;;;;;;6.63;1.80;;;4.10;99.90;;;;;;5009612;28;20367;-36
2023/01/16 08:15:28;;;;;;;4.15;1.77;;;4.10;99.90;;;;;;5017528;28;20541;-37
2023/01/16 08:17:54;;;;;;;5.32;2.00;;;4.10;99.90;;;;;;5008418;28;20179;-36
2023/01/16 08:20:19;;;;;;;6.13;1.67;;;4.10;99.90;;;;;;5005216;28;20050;-37
2023/01/16 08:22:47;;;;;;;5.60;1.85;;;4.10;99.90;;;;;;4999957;28;20042;-37
2023/01/16 08:25:14;;;;;;;5.75;1.73;;;4.20;99.90;;;;;;5007151;28;20061;-37
2023/01/16 08:27:41;;;;;;;7.07;1.83;;;4.20;99.90;;;;;;5011100;28;20438;-37
2023/01/16 08:30:08;;;;;;;3.97;1.42;;;4.20;99.90;;;;;;5010476;28;20067;-37
2023/01/16 08:32:33;;;;;;;5.10;2.03;;;4.20;99.90;;;;;;5013284;28;20038;-36
2023/01/16 08:34:59;;;;;;;7.45;2.17;;;4.20;99.90;;;;;;5006206;28;20061;-37
2023/01/16 08:37:25;;;;;;;6.95;2.17;;;4.20;99.90;;;;;;5006290;28;20061;-37
2023/01/16 08:39:50;;;;;;;4.90;1.73;;;4.20;99.90;;;;;;5008418;28;20438;-37
2023/01/16 08:53:14;;;;;;;6.60;1.77;;;4.20;99.90;;;;;;5009079;28;20045;-37
2023/01/16 08:55:39;;;;;;;3.70;1.60;;;4.20;99.90;;;;;;5010448;28;20076;-39
2023/01/16 08:58:05;;;;;;;3.47;1.65;;;4.20;99.90;;;;;;5006432;28;20099;-37
2023/01/16 09:00:33;;;;;;;7.40;2.03;;;4.20;99.90;;;;;;4993017;28;20051;-37
2023/01/16 09:03:01;;;;;;;6.43;1.70;;;4.20;99.90;;;;;;5007954;28;20058;-40
2023/01/16 09:05:26;;;;;;;5.38;1.63;;;4.20;99.90;;;;;;5008017;28;20042;-37
2023/01/16 09:07:53;;;;;;;3.90;1.67;;;4.20;99.90;;;;;;5010075;28;20618;-36
2023/01/16 09:10:19;;;;;;;3.92;1.85;;;4.20;99.90;;;;;;5007731;28;20448;-38
2023/01/16 09:15:29;;;;;;;5.70;1.90;;;4.20;99.90;;;;;;5009469;28;20410;-36
2023/01/16 09:17:55;;;;;;;3.78;1.23;;;4.20;99.90;;;;;;5009054;28;20033;-37
2023/01/16 09:20:21;;;;;;;4.97;1.42;;;4.20;99.90;;;;;;5006485;28;20554;-37
2023/01/16 09:22:46;;;;;;;3.53;1.30;;;4.20;99.90;;;;;;5005582;28;20426;-37
2023/01/16 09:25:12;;;;;;;2.42;1.13;;;4.20;99.90;;;;;;5005598;28;20523;-37
2023/01/16 09:27:38;;;;;;;1.65;0.73;;;4.20;99.90;;;;;;5004395;28;20034;-38
2023/01/16 09:30:05;;;;;;;3.20;1.08;;;4.20;99.90;;;;;;5003050;28;20037;-37
2023/01/16 09:32:33;;;;;;;3.92;1.08;;;4.30;99.90;;;;;;5003844;28;20038;-37
2023/01/16 09:34:59;;;;;;;3.30;0.93;;;4.30;99.90;;;;;;5005966;28;20093;-38
2023/01/16 09:37:24;;;;;;;6.60;1.17;;;4.30;99.90;;;;;;5006288;28;20088;-36
2023/01/16 09:39:50;;;;;;;2.80;0.98;;;4.30;99.90;;;;;;4996349;28;20507;-36
2023/01/16 09:45:29;;;;;;;2.50;0.90;;;4.30;99.90;;;;;;5003083;28;21502;-36
2023/01/16 09:48:01;;;;;;;3.67;0.93;;;4.30;99.90;;;;;;4999008;28;20172;-36
2023/01/16 09:50:34;;;;;;;4.78;0.93;;;4.30;99.90;;;;;;5003196;28;20049;-37
2023/01/16 09:58:35;;;;;;;1.08;0.50;;;4.30;99.90;;;;;;5000054;28;20078;-36
2023/01/16 10:01:26;;;;;;;2.22;0.60;;;4.30;99.90;;;;;;4980163;28;20074;-38
2023/01/16 10:03:57;;;;;;;1.20;0.50;;;4.20;99.90;;;;;;4998894;28;20047;-38
2023/01/16 10:06:35;;;;;;;3.55;0.93;;;4.20;99.90;;;;;;4999749;28;20558;-36
2023/01/16 10:09:29;;;;;;;1.75;0.50;;;4.20;99.90;;;;;;4999930;28;20157;-37
2023/01/16 10:12:04;;;;;;;1.60;0.50;;;4.20;99.90;;;;;;4997397;28;20794;-37
2023/01/16 10:15:05;;;;;;;1.67;0.75;;;4.10;99.90;;;;;;5001643;28;20041;-36
2023/01/16 10:18:03;;;;;;;2.58;0.60;;;4.10;99.90;;;;;;4936232;28;20046;-40
2023/01/16 10:20:52;;;;;;;3.63;1.00;;;4.10;99.90;;;;;;5001263;28;20080;-36
2023/01/16 10:23:29;;;;;;;0.98;0.55;;;4.10;99.90;;;;;;4999246;28;20525;-36
2023/01/16 10:26:26;;;;;;;1.35;0.50;;;4.10;99.90;;;;;;5004320;28;20072;-36
2023/01/16 10:29:21;;;;;;;2.10;0.73;;;4.10;99.90;;;;;;5007711;28;20042;-36
2023/01/16 10:32:16;;;;;;;1.25;0.65;;;4.10;99.90;;;;;;4994512;28;20050;-36
2023/01/16 10:35:05;;;;;;;2.00;0.90;;;4.10;99.90;;;;;;4996613;28;20057;-36
2023/01/16 10:37:32;;;;;;;2.45;0.93;;;4.10;99.90;;;;;;5007373;28;20503;-36
2023/01/16 10:40:03;;;;;;;1.90;0.77;;;4.10;99.90;;;;;;5010944;28;20053;-36
2023/01/16 10:51:02;;;;;;;4.22;1.23;;;4.10;99.90;;;;;;4999948;28;20054;-37
2023/01/16 10:53:29;;;;;;;1.77;0.70;;;4.10;99.90;;;;;;5000923;28;20768;-36
2023/01/16 10:55:56;;;;;;;2.33;0.95;;;4.10;99.90;;;;;;4999650;28;20068;-36
2023/01/16 10:58:21;;;;;;;3.20;0.88;;;4.10;99.90;;;;;;4999634;28;20471;-37
2023/01/16 11:00:49;;;;;;;3.05;1.00;;;4.10;99.90;;;;;;5000711;28;20081;-37
2023/01/16 11:03:38;;;;;;;2.05;1.10;;;4.10;99.90;;;;;;4998698;28;20116;-37
2023/01/16 11:06:11;;;;;;;2.97;1.20;;;4.20;99.90;;;;;;4986236;28;20430;-37
2023/01/16 11:08:37;;;;;;;3.28;1.55;;;4.20;99.90;;;;;;4999976;28;20049;-37
2023/01/16 11:11:03;;;;;;;2.58;1.00;;;4.20;99.90;;;;;;5002778;28;20046;-38
2023/01/16 11:19:18;;;;;;;2.13;0.85;;;4.30;99.90;;;;;;5005272;28;20054;-39
2023/01/16 11:21:49;;;;;;;1.63;0.70;;;4.30;99.90;;;;;;5002907;28;20096;-38
2023/01/16 11:24:18;;;;;;;2.80;1.05;;;4.30;99.90;;;;;;5001982;28;20345;-39
2023/01/16 11:26:49;;;;;;;2.72;0.90;;;4.30;99.90;;;;;;5006014;28;20133;-36
2023/01/16 11:29:23;;;;;;;4.32;1.50;;;4.30;99.90;;;;;;5003850;28;20088;-37
2023/01/16 11:31:54;;;;;;;2.03;0.90;;;4.40;99.90;;;;;;5002550;28;20172;-36
2023/01/16 11:34:25;;;;;;;2.50;0.90;;;4.40;99.90;;;;;;5009967;28;20038;-41
2023/01/16 11:36:54;;;;;;;6.53;1.08;;;4.40;99.90;;;;;;5008209;28;20054;-36
2023/01/16 11:39:24;;;;;;;3.33;1.10;;;4.40;99.90;;;;;;5010485;28;21005;-36
2023/01/16 11:41:55;;;;;;;3.55;1.08;;;4.40;99.90;;;;;;5009203;28;20038;-36
2023/01/16 11:47:22;;;;;;;3.55;1.05;;;4.50;99.90;;;;;;5000645;28;20046;-39
2023/01/16 11:49:50;;;;;;;2.22;1.05;;;4.50;99.90;;;;;;5005321;28;20030;-36
2023/01/16 11:52:26;;;;;;;4.32;1.08;;;4.50;99.90;;;;;;5005330;28;21159;-39
2023/01/16 11:54:59;;;;;;;2.83;1.20;;;4.50;99.90;;;;;;5005966;28;20076;-37
2023/01/16 11:57:31;;;;;;;4.30;1.02;;;4.50;99.90;;;;;;5000976;28;20073;-36
2023/01/16 12:00:19;;;;;;;2.30;1.02;;;4.60;99.90;;;;;;4998413;28;20049;-36
2023/01/16 12:03:20;;;;;;;5.13;1.65;;;4.60;99.90;;;;;;4988174;28;20046;-38
2023/01/16 12:05:56;;;;;;;3.08;1.00;;;4.60;99.90;;;;;;5001905;28;20099;-36
2023/01/16 12:08:31;;;;;;;4.90;1.15;;;4.60;99.90;;;;;;5001698;28;20065;-36
2023/01/16 12:11:22;;;;;;;3.10;1.10;;;4.60;99.90;;;;;;5000218;28;20045;-36
2023/01/16 12:14:21;;;;;;;4.05;1.20;;;4.60;99.90;;;;;;4999786;28;20065;-37
2023/01/16 12:17:08;;;;;;;1.65;0.88;;;4.70;99.90;;;;;;5002236;28;20064;-40
2023/01/16 12:19:37;;;;;;;2.38;1.10;;;4.70;99.90;;;;;;4999221;28;20050;-37
2023/01/16 12:22:15;;;;;;;2.95;1.38;;;4.70;99.90;;;;;;5001184;28;20161;-37
2023/01/16 12:24:56;;;;;;;2.25;1.20;;;4.70;99.90;;;;;;5000200;28;20510;-37
2023/01/16 12:27:40;;;;;;;3.25;1.33;;;4.80;99.90;;;;;;5005875;28;20499;-36
2023/01/16 12:30:33;;;;;;;5.43;1.33;;;4.80;99.90;;;;;;5007512;28;20041;-37
2023/01/16 12:33:31;;;;;;;3.53;1.35;;;4.80;99.90;;;;;;5005598;28;20068;-36
2023/01/16 12:36:41;;;;;;;2.55;1.10;;;4.80;99.90;;;;;;5006551;28;20053;-37
2023/01/16 12:39:38;;;;;;;1.65;0.73;;;4.80;99.90;;;;;;5009120;28;20403;-38
2023/01/16 12:45:13;;;;;;;1.95;0.95;;;4.80;99.90;;;;;;5004771;28;20053;-39
2023/01/16 12:47:58;;;;;;;6.55;1.33;;;4.80;99.90;;;;;;4986659;28;20041;-37
2023/01/16 12:50:43;;;;;;;2.03;1.10;;;4.80;99.90;;;;;;5007705;28;20061;-37
2023/01/16 12:53:26;;;;;;;3.58;1.08;;;4.80;99.90;;;;;;5008752;28;20056;-37
2023/01/16 12:56:09;;;;;;;4.75;1.10;;;4.90;99.90;;;;;;5003902;28;20036;-37
2023/01/16 12:58:40;;;;;;;2.72;1.25;;;4.90;99.90;;;;;;5008045;28;20557;-36
2023/01/16 13:01:13;;;;;;;2.42;1.10;;;4.90;99.90;;;;;;5004291;28;20089;-39
2023/01/16 13:03:56;;;;;;;3.47;1.05;;;4.90;99.90;;;;;;5008149;28;20041;-36
2023/01/16 13:06:44;;;;;;;2.08;1.13;;;5.00;99.90;;;;;;4997752;28;20052;-37
2023/01/16 13:09:34;;;;;;;1.80;0.98;;;4.90;99.90;;;;;;5003304;28;20534;-37
2023/01/16 13:15:20;;;;;;;3.67;0.90;;;5.00;99.90;;;;;;5002392;28;20034;-36
2023/01/16 13:17:50;;;;;;;3.15;1.17;;;5.00;99.90;;;;;;4998782;28;20033;-38
2023/01/16 13:20:19;;;;;;;1.70;0.65;;;5.00;99.90;;;;;;5005297;28;20136;-36
2023/01/16 13:22:52;;;;;;;1.20;0.60;;;5.10;99.90;;;;;;5005969;28;20038;-37
2023/01/16 13:25:45;;;;;;;2.58;0.70;;;5.10;99.90;;;;;;5011996;28;20107;-39
2023/01/16 13:28:24;;;;;;;1.77;0.60;;;5.10;99.90;;;;;;5003749;28;20574;-36
2023/01/16 13:30:55;;;;;;;1.58;0.70;;;5.10;99.90;;;;;;5004350;28;20443;-36
2023/01/16 13:33:25;;;;;;;1.40;0.70;;;5.10;99.90;;;;;;5007649;28;20519;-37
2023/01/16 13:35:54;;;;;;;1.63;0.73;;;5.10;99.90;;;;;;5007768;28;20064;-37
2023/01/16 13:38:36;;;;;;;2.05;0.70;;;5.20;99.90;;;;;;5008109;28;20487;-39
2023/01/16 13:41:30;;;;;;;0.98;0.60;;;5.20;99.90;;;;;;4999051;28;21001;-37
2023/01/16 13:46:46;;;;;;;3.00;0.60;;;5.20;99.90;;;;;;5000983;28;20049;-38
2023/01/16 13:49:22;;;;;;;1.50;0.60;;;5.20;99.90;;;;;;5004663;28;20096;-38
2023/01/16 13:51:50;;;;;;;0.95;0.50;;;5.20;99.90;;;;;;4999611;28;20092;-39
2023/01/16 13:54:24;;;;;;;1.58;0.70;;;5.20;99.90;;;;;;4998195;28;20045;-38
2023/01/16 13:57:23;;;;;;;1.92;0.60;;;5.20;99.90;;;;;;5000125;28;20038;-37
2023/01/16 13:59:49;;;;;;;1.63;0.60;;;5.20;99.90;;;;;;5003188;28;20038;-38
2023/01/16 14:02:39;;;;;;;4.22;0.80;;;5.20;99.90;;;;;;5005833;28;20044;-40
2023/01/16 14:05:15;;;;;;;2.60;0.65;;;5.20;99.90;;;;;;4985353;28;20076;-37
2023/01/16 14:10:59;;;;;;;0.82;0.40;;;5.20;99.90;;;;;;4998255;28;20141;-38
2023/01/16 14:13:33;;;;;;;1.67;0.60;;;5.20;99.90;;;;;;5005240;28;20117;-38
2023/01/16 14:18:45;;;;;;;1.83;0.57;;;5.10;99.90;;;;;;5003335;28;20572;-37
2023/01/16 14:21:23;;;;;;;0.90;0.50;;;5.10;99.90;;;;;;5004522;28;20317;-39
2023/01/16 14:24:00;;;;;;;1.48;0.68;;;5.10;99.90;;;;;;5006974;28;20049;-39
2023/01/16 14:26:37;;;;;;;1.45;0.65;;;5.20;99.90;;;;;;5008135;28;20598;-39
2023/01/16 14:29:26;;;;;;;1.10;0.60;;;5.10;99.90;;;;;;5002175;28;20053;-37